Swift Arrow — WAFK — position and weather

sailwx.info

Track history (hours):
 
Tides and Currents Weather Stations Pressure Air Temp Water Temp Dewpoint Dewpoint Depression Visibility Wind Speed Wind Dir Waves Ship Positions

Swift Arrow

Owner: ARROW LAUNCH SERVICE INC, Port Angeles, WA. More information available from US FCC via Universal Licensing System and Coast Guard Vessel Documentation Center.

Last reported at 2016-Aug-27 03:33 UTC. Time now 2016-Aug-27 08:12 UTC.
Position N 47°16' W 122°26'.

Type: Port tender. MMSI: 369021000.

Date/timePositionNaut miles runAvg speedWind from/ knotsBaromVisibWave heightAir tempDewpointWater temp
2016-Aug-27 03:33N 47°16' W 122°26'0 0.0
2016-Aug-26 22:33N 47°15' W 122°26'0 0.0
2016-Aug-26 13:29N 47°15' W 122°26'0 0.0
2016-Aug-26 02:33N 47°16' W 122°26'1 0.2
2016-Aug-25 19:33N 47°17' W 122°27'0 0.2
2016-Aug-25 16:33N 47°16' W 122°26'1 0.2
2016-Aug-25 13:32N 47°16' W 122°26'0 0.0
2016-Aug-25 04:24N 47°15' W 122°26'4 4.3
2016-Aug-25 03:34N 47°19' W 122°28'2 0.5
2016-Aug-24 22:33N 47°16' W 122°27'0 0.1
2016-Aug-24 21:33N 47°16' W 122°27'0 0.0
2016-Aug-24 20:33N 47°16' W 122°27'0 0.1
2016-Aug-24 19:33N 47°16' W 122°27'0 0.1
2016-Aug-24 18:33N 47°16' W 122°27'0 0.0
2016-Aug-24 17:33N 47°16' W 122°27'0 0.1
2016-Aug-24 16:33N 47°16' W 122°27'1 0.3
2016-Aug-24 12:10N 47°15' W 122°26'1 2.2
2016-Aug-24 11:33N 47°16' W 122°27'2 0.1
2016-Aug-23 09:22N 47°17' W 122°23'2 2.1
2016-Aug-23 08:33N 47°17' W 122°26'1 0.2
2016-Aug-23 00:25N 47°15' W 122°26'2 2.5
2016-Aug-22 23:33N 47°17' W 122°25'1 0.2
2016-Aug-22 21:04N 47°17' W 122°24'2 3.0
2016-Aug-22 20:33N 47°16' W 122°26'1 1.1
2016-Aug-22 19:33N 47°17' W 122°25'2 0.1
2016-Aug-21 20:12N 47°15' W 122°26'1 2.0
2016-Aug-21 19:34N 47°16' W 122°26'0 0.0
2016-Aug-21 16:33N 47°17' W 122°26'1 0.1
2016-Aug-20 19:33N 47°17' W 122°25'0 0.2
2016-Aug-20 18:25N 47°17' W 122°25'0 0.1
2016-Aug-20 17:23N 47°17' W 122°25'2 0.1
2016-Aug-19 18:25N 47°15' W 122°26'2 2.4
2016-Aug-19 17:31N 47°17' W 122°25'1 0.6
2016-Aug-19 16:25N 47°17' W 122°26'2 0.5
2016-Aug-19 13:15N 47°15' W 122°26'2 2.8
2016-Aug-19 12:31N 47°17' W 122°26'2 0.7
2016-Aug-19 09:24N 47°15' W 122°26'0 0.0
2016-Aug-19 00:06N 47°15' W 122°26'0 0.3
2016-Aug-18 22:33N 47°16' W 122°26'1 0.3
2016-Aug-18 20:33N 47°16' W 122°26'1 0.8
2016-Aug-18 19:33N 47°16' W 122°26'1 0.8
2016-Aug-18 18:34N 47°16' W 122°26'0 0.1
2016-Aug-18 17:33N 47°16' W 122°27'0 0.1
2016-Aug-18 16:33N 47°16' W 122°27'1 0.5
2016-Aug-18 15:33N 47°16' W 122°26'  
Track history (hours):
 
Tides and Currents Weather Stations Pressure Air Temp Water Temp Dewpoint Dewpoint Depression Visibility Wind Speed Wind Dir Waves Ship Positions

Swift Arrow

Owner: ARROW LAUNCH SERVICE INC, Port Angeles, WA. More information available from US FCC via Universal Licensing System and Coast Guard Vessel Documentation Center.

Last reported at 2016-Aug-27 03:33 UTC. Time now 2016-Aug-27 08:12 UTC.
Position N 47°16' W 122°26'.

Type: Port tender. MMSI: 369021000.

Date/timePositionNaut miles runAvg speedWind from/ knotsBaromVisibWave heightAir tempDewpointWater temp
2016-Aug-27 03:33N 47°16' W 122°26'0 0.0
2016-Aug-26 22:33N 47°15' W 122°26'0 0.0
2016-Aug-26 13:29N 47°15' W 122°26'0 0.0
2016-Aug-26 02:33N 47°16' W 122°26'1 0.2
2016-Aug-25 19:33N 47°17' W 122°27'0 0.2
2016-Aug-25 16:33N 47°16' W 122°26'1 0.2
2016-Aug-25 13:32N 47°16' W 122°26'0 0.0
2016-Aug-25 04:24N 47°15' W 122°26'4 4.3
2016-Aug-25 03:34N 47°19' W 122°28'2 0.5
2016-Aug-24 22:33N 47°16' W 122°27'0 0.1
2016-Aug-24 21:33N 47°16' W 122°27'0 0.0
2016-Aug-24 20:33N 47°16' W 122°27'0 0.1
2016-Aug-24 19:33N 47°16' W 122°27'0 0.1
2016-Aug-24 18:33N 47°16' W 122°27'0 0.0
2016-Aug-24 17:33N 47°16' W 122°27'0 0.1
2016-Aug-24 16:33N 47°16' W 122°27'1 0.3
2016-Aug-24 12:10N 47°15' W 122°26'1 2.2
2016-Aug-24 11:33N 47°16' W 122°27'2 0.1
2016-Aug-23 09:22N 47°17' W 122°23'2 2.1
2016-Aug-23 08:33N 47°17' W 122°26'1 0.2
2016-Aug-23 00:25N 47°15' W 122°26'2 2.5
2016-Aug-22 23:33N 47°17' W 122°25'1 0.2
2016-Aug-22 21:04N 47°17' W 122°24'2 3.0
2016-Aug-22 20:33N 47°16' W 122°26'1 1.1
2016-Aug-22 19:33N 47°17' W 122°25'2 0.1
2016-Aug-21 20:12N 47°15' W 122°26'1 2.0
2016-Aug-21 19:34N 47°16' W 122°26'0 0.0
2016-Aug-21 16:33N 47°17' W 122°26'1 0.1
2016-Aug-20 19:33N 47°17' W 122°25'0 0.2
2016-Aug-20 18:25N 47°17' W 122°25'0 0.1
2016-Aug-20 17:23N 47°17' W 122°25'2 0.1
2016-Aug-19 18:25N 47°15' W 122°26'2 2.4
2016-Aug-19 17:31N 47°17' W 122°25'1 0.6
2016-Aug-19 16:25N 47°17' W 122°26'2 0.5
2016-Aug-19 13:15N 47°15' W 122°26'2 2.8
2016-Aug-19 12:31N 47°17' W 122°26'2 0.7
2016-Aug-19 09:24N 47°15' W 122°26'0 0.0
2016-Aug-19 00:06N 47°15' W 122°26'0 0.3
2016-Aug-18 22:33N 47°16' W 122°26'1 0.3
2016-Aug-18 20:33N 47°16' W 122°26'1 0.8
2016-Aug-18 19:33N 47°16' W 122°26'1 0.8
2016-Aug-18 18:34N 47°16' W 122°26'0 0.1
2016-Aug-18 17:33N 47°16' W 122°27'0 0.1
2016-Aug-18 16:33N 47°16' W 122°27'1 0.5
2016-Aug-18 15:33N 47°16' W 122°26'  

Dump ship's entire track history